sensor_id;sensor_type;location;lat;lon;timestamp;P1;durP1;ratioP1;P2;durP2;ratioP2
58553;SDS011;48119;53.218;6.576;2022-12-29T00:02:17;5.22;;;2.63;;
58553;SDS011;48119;53.218;6.576;2022-12-29T00:04:43;3.03;;;2.28;;
58553;SDS011;48119;53.218;6.576;2022-12-29T00:07:09;3.20;;;2.17;;
58553;SDS011;48119;53.218;6.576;2022-12-29T00:09:35;2.95;;;2.28;;
58553;SDS011;48119;53.218;6.576;2022-12-29T00:12:01;3.47;;;2.13;;
58553;SDS011;48119;53.218;6.576;2022-12-29T00:14:28;3.40;;;2.20;;
58553;SDS011;48119;53.218;6.576;2022-12-29T00:17:13;4.63;;;2.03;;
58553;SDS011;48119;53.218;6.576;2022-12-29T00:19:39;3.00;;;2.08;;
58553;SDS011;48119;53.218;6.576;2022-12-29T00:22:23;2.58;;;1.98;;
58553;SDS011;48119;53.218;6.576;2022-12-29T00:25:08;2.10;;;1.83;;
58553;SDS011;48119;53.218;6.576;2022-12-29T00:27:53;2.50;;;1.77;;
58553;SDS011;48119;53.218;6.576;2022-12-29T00:30:37;2.78;;;1.63;;
58553;SDS011;48119;53.218;6.576;2022-12-29T00:33:25;2.90;;;1.77;;
58553;SDS011;48119;53.218;6.576;2022-12-29T00:36:13;3.13;;;1.73;;
58553;SDS011;48119;53.218;6.576;2022-12-29T00:38:47;2.90;;;1.85;;
58553;SDS011;48119;53.218;6.576;2022-12-29T00:41:36;2.17;;;1.67;;
58553;SDS011;48119;53.218;6.576;2022-12-29T00:44:21;3.45;;;2.03;;
58553;SDS011;48119;53.218;6.576;2022-12-29T00:46:46;4.25;;;2.03;;
58553;SDS011;48119;53.218;6.576;2022-12-29T00:49:13;4.25;;;2.33;;
58553;SDS011;48119;53.218;6.576;2022-12-29T00:52:04;4.00;;;2.05;;
58553;SDS011;48119;53.218;6.576;2022-12-29T00:54:32;2.33;;;2.13;;
58553;SDS011;48119;53.218;6.576;2022-12-29T00:57:00;3.15;;;2.38;;
58553;SDS011;48119;53.218;6.576;2022-12-29T00:59:26;2.78;;;1.90;;
58553;SDS011;48119;53.218;6.576;2022-12-29T01:01:52;3.78;;;2.45;;
58553;SDS011;48119;53.218;6.576;2022-12-29T01:04:19;2.25;;;1.85;;
58553;SDS011;48119;53.218;6.576;2022-12-29T01:06:46;2.85;;;1.83;;
58553;SDS011;48119;53.218;6.576;2022-12-29T01:09:12;2.45;;;1.90;;
58553;SDS011;48119;53.218;6.576;2022-12-29T01:11:57;2.40;;;1.70;;
58553;SDS011;48119;53.218;6.576;2022-12-29T01:14:24;3.25;;;2.10;;
58553;SDS011;48119;53.218;6.576;2022-12-29T01:16:50;3.13;;;2.30;;
58553;SDS011;48119;53.218;6.576;2022-12-29T01:19:16;3.53;;;2.30;;
58553;SDS011;48119;53.218;6.576;2022-12-29T01:21:43;2.70;;;2.10;;
58553;SDS011;48119;53.218;6.576;2022-12-29T01:24:10;5.78;;;3.13;;
58553;SDS011;48119;53.218;6.576;2022-12-29T01:26:35;3.13;;;2.13;;
58553;SDS011;48119;53.218;6.576;2022-12-29T01:29:01;2.70;;;2.00;;
58553;SDS011;48119;53.218;6.576;2022-12-29T01:31:27;3.90;;;2.30;;
58553;SDS011;48119;53.218;6.576;2022-12-29T01:33:52;9.05;;;3.05;;
58553;SDS011;48119;53.218;6.576;2022-12-29T01:36:18;2.63;;;1.70;;
58553;SDS011;48119;53.218;6.576;2022-12-29T01:38:45;3.90;;;2.08;;
58553;SDS011;48119;53.218;6.576;2022-12-29T01:41:12;3.70;;;2.47;;
58553;SDS011;48119;53.218;6.576;2022-12-29T01:43:41;3.78;;;2.17;;
58553;SDS011;48119;53.218;6.576;2022-12-29T01:46:24;3.13;;;2.22;;
58553;SDS011;48119;53.218;6.576;2022-12-29T01:49:12;3.67;;;2.75;;
58553;SDS011;48119;53.218;6.576;2022-12-29T01:51:52;3.50;;;2.45;;
58553;SDS011;48119;53.218;6.576;2022-12-29T01:54:22;4.03;;;2.42;;
58553;SDS011;48119;53.218;6.576;2022-12-29T01:56:58;3.80;;;2.42;;
58553;SDS011;48119;53.218;6.576;2022-12-29T01:59:28;3.90;;;2.50;;
58553;SDS011;48119;53.218;6.576;2022-12-29T02:01:59;3.28;;;2.25;;
58553;SDS011;48119;53.218;6.576;2022-12-29T02:04:26;4.25;;;2.30;;
58553;SDS011;48119;53.218;6.576;2022-12-29T02:06:57;4.18;;;2.80;;
58553;SDS011;48119;53.218;6.576;2022-12-29T02:09:28;3.13;;;2.67;;
58553;SDS011;48119;53.218;6.576;2022-12-29T02:11:55;5.47;;;2.58;;
58553;SDS011;48119;53.218;6.576;2022-12-29T02:14:23;9.00;;;2.97;;
58553;SDS011;48119;53.218;6.576;2022-12-29T02:42:03;3.05;;;1.80;;
58553;SDS011;48119;53.218;6.576;2022-12-29T02:44:44;3.03;;;1.35;;
58553;SDS011;48119;53.218;6.576;2022-12-29T02:49:48;2.42;;;1.50;;
58553;SDS011;48119;53.218;6.576;2022-12-29T02:52:20;2.17;;;1.35;;
58553;SDS011;48119;53.218;6.576;2022-12-29T02:54:52;2.22;;;1.20;;
58553;SDS011;48119;53.218;6.576;2022-12-29T03:00:03;4.55;;;1.60;;
58553;SDS011;48119;53.218;6.576;2022-12-29T03:02:39;2.35;;;1.58;;
58553;SDS011;48119;53.218;6.576;2022-12-29T03:13:14;2.35;;;1.30;;
58553;SDS011;48119;53.218;6.576;2022-12-29T03:16:15;3.25;;;1.33;;
58553;SDS011;48119;53.218;6.576;2022-12-29T03:22:17;1.55;;;1.10;;
58553;SDS011;48119;53.218;6.576;2022-12-29T03:25:01;1.63;;;1.10;;
58553;SDS011;48119;53.218;6.576;2022-12-29T03:27:32;1.77;;;1.27;;
58553;SDS011;48119;53.218;6.576;2022-12-29T03:30:04;3.50;;;0.88;;
58553;SDS011;48119;53.218;6.576;2022-12-29T03:32:33;1.70;;;1.13;;
58553;SDS011;48119;53.218;6.576;2022-12-29T03:35:03;3.05;;;1.10;;
58553;SDS011;48119;53.218;6.576;2022-12-29T03:37:32;3.45;;;1.25;;
58553;SDS011;48119;53.218;6.576;2022-12-29T03:40:03;3.38;;;1.10;;
58553;SDS011;48119;53.218;6.576;2022-12-29T03:42:30;2.92;;;0.90;;
58553;SDS011;48119;53.218;6.576;2022-12-29T03:44:59;3.25;;;0.90;;
58553;SDS011;48119;53.218;6.576;2022-12-29T03:47:24;2.33;;;1.15;;
58553;SDS011;48119;53.218;6.576;2022-12-29T03:49:50;2.83;;;0.93;;
58553;SDS011;48119;53.218;6.576;2022-12-29T03:52:17;3.65;;;1.10;;
58553;SDS011;48119;53.218;6.576;2022-12-29T03:54:43;2.30;;;0.80;;
58553;SDS011;48119;53.218;6.576;2022-12-29T03:57:09;5.03;;;1.20;;
58553;SDS011;48119;53.218;6.576;2022-12-29T03:59:35;3.85;;;1.00;;
58553;SDS011;48119;53.218;6.576;2022-12-29T04:02:01;2.35;;;0.93;;
58553;SDS011;48119;53.218;6.576;2022-12-29T04:04:27;2.50;;;1.10;;
58553;SDS011;48119;53.218;6.576;2022-12-29T04:06:53;1.77;;;0.82;;
58553;SDS011;48119;53.218;6.576;2022-12-29T04:09:19;1.73;;;0.88;;
58553;SDS011;48119;53.218;6.576;2022-12-29T04:11:44;3.83;;;0.98;;
58553;SDS011;48119;53.218;6.576;2022-12-29T04:14:10;3.38;;;0.93;;
58553;SDS011;48119;53.218;6.576;2022-12-29T04:16:36;3.08;;;0.80;;
58553;SDS011;48119;53.218;6.576;2022-12-29T04:19:04;2.83;;;1.15;;
58553;SDS011;48119;53.218;6.576;2022-12-29T04:21:32;4.50;;;0.95;;
58553;SDS011;48119;53.218;6.576;2022-12-29T04:24:01;2.38;;;0.80;;
58553;SDS011;48119;53.218;6.576;2022-12-29T04:26:27;3.35;;;1.08;;
58553;SDS011;48119;53.218;6.576;2022-12-29T04:28:53;3.95;;;1.08;;
58553;SDS011;48119;53.218;6.576;2022-12-29T04:31:19;2.72;;;0.70;;
58553;SDS011;48119;53.218;6.576;2022-12-29T04:33:44;6.93;;;1.15;;
58553;SDS011;48119;53.218;6.576;2022-12-29T04:36:10;3.83;;;1.38;;
58553;SDS011;48119;53.218;6.576;2022-12-29T04:38:36;1.65;;;0.80;;
58553;SDS011;48119;53.218;6.576;2022-12-29T04:41:02;7.53;;;1.35;;
58553;SDS011;48119;53.218;6.576;2022-12-29T04:43:28;7.70;;;1.63;;
58553;SDS011;48119;53.218;6.576;2022-12-29T04:45:54;1.88;;;0.65;;
58553;SDS011;48119;53.218;6.576;2022-12-29T04:48:20;6.10;;;1.17;;
58553;SDS011;48119;53.218;6.576;2022-12-29T04:50:47;3.85;;;1.10;;
58553;SDS011;48119;53.218;6.576;2022-12-29T04:53:14;3.75;;;1.20;;
58553;SDS011;48119;53.218;6.576;2022-12-29T04:55:40;4.25;;;0.93;;
58553;SDS011;48119;53.218;6.576;2022-12-29T04:58:06;5.70;;;1.23;;
58553;SDS011;48119;53.218;6.576;2022-12-29T05:00:32;4.30;;;1.50;;
58553;SDS011;48119;53.218;6.576;2022-12-29T05:02:58;4.75;;;1.23;;
58553;SDS011;48119;53.218;6.576;2022-12-29T05:05:24;4.72;;;1.23;;
58553;SDS011;48119;53.218;6.576;2022-12-29T05:07:50;4.03;;;1.25;;
58553;SDS011;48119;53.218;6.576;2022-12-29T05:10:16;4.45;;;1.40;;
58553;SDS011;48119;53.218;6.576;2022-12-29T05:12:43;8.90;;;1.65;;
58553;SDS011;48119;53.218;6.576;2022-12-29T05:15:09;4.68;;;1.90;;
58553;SDS011;48119;53.218;6.576;2022-12-29T05:17:36;8.32;;;2.25;;
58553;SDS011;48119;53.218;6.576;2022-12-29T05:20:02;11.73;;;2.33;;
58553;SDS011;48119;53.218;6.576;2022-12-29T05:22:29;5.38;;;1.40;;
58553;SDS011;48119;53.218;6.576;2022-12-29T05:24:55;8.25;;;2.45;;
58553;SDS011;48119;53.218;6.576;2022-12-29T05:27:21;5.50;;;1.70;;
58553;SDS011;48119;53.218;6.576;2022-12-29T05:29:49;6.60;;;1.50;;
58553;SDS011;48119;53.218;6.576;2022-12-29T05:32:15;5.35;;;1.67;;
58553;SDS011;48119;53.218;6.576;2022-12-29T05:34:40;6.22;;;1.92;;
58553;SDS011;48119;53.218;6.576;2022-12-29T05:37:06;12.82;;;2.28;;
58553;SDS011;48119;53.218;6.576;2022-12-29T05:39:32;6.40;;;1.63;;
58553;SDS011;48119;53.218;6.576;2022-12-29T05:41:58;5.72;;;1.77;;
58553;SDS011;48119;53.218;6.576;2022-12-29T05:44:23;8.10;;;2.55;;
58553;SDS011;48119;53.218;6.576;2022-12-29T05:46:49;8.02;;;2.22;;
58553;SDS011;48119;53.218;6.576;2022-12-29T05:49:15;8.13;;;1.98;;
58553;SDS011;48119;53.218;6.576;2022-12-29T05:51:41;9.35;;;2.08;;
58553;SDS011;48119;53.218;6.576;2022-12-29T05:54:07;6.60;;;2.20;;
58553;SDS011;48119;53.218;6.576;2022-12-29T05:56:33;20.52;;;3.13;;
58553;SDS011;48119;53.218;6.576;2022-12-29T05:58:59;6.40;;;1.55;;
58553;SDS011;48119;53.218;6.576;2022-12-29T06:01:25;5.65;;;1.52;;
58553;SDS011;48119;53.218;6.576;2022-12-29T06:03:51;4.82;;;1.42;;
58553;SDS011;48119;53.218;6.576;2022-12-29T06:06:17;5.05;;;1.60;;
58553;SDS011;48119;53.218;6.576;2022-12-29T06:08:42;7.43;;;2.13;;
58553;SDS011;48119;53.218;6.576;2022-12-29T06:11:08;6.57;;;1.95;;
58553;SDS011;48119;53.218;6.576;2022-12-29T06:13:34;8.90;;;2.28;;
58553;SDS011;48119;53.218;6.576;2022-12-29T06:16:00;8.57;;;1.70;;
58553;SDS011;48119;53.218;6.576;2022-12-29T06:18:26;9.02;;;2.17;;
58553;SDS011;48119;53.218;6.576;2022-12-29T06:20:52;8.23;;;1.85;;
58553;SDS011;48119;53.218;6.576;2022-12-29T06:23:18;14.93;;;2.30;;
58553;SDS011;48119;53.218;6.576;2022-12-29T06:25:44;8.25;;;1.58;;
58553;SDS011;48119;53.218;6.576;2022-12-29T06:28:11;5.45;;;2.03;;
58553;SDS011;48119;53.218;6.576;2022-12-29T06:30:37;6.18;;;2.28;;
58553;SDS011;48119;53.218;6.576;2022-12-29T06:33:03;6.82;;;1.90;;
58553;SDS011;48119;53.218;6.576;2022-12-29T06:35:29;10.18;;;2.08;;
58553;SDS011;48119;53.218;6.576;2022-12-29T06:37:54;7.53;;;2.38;;
58553;SDS011;48119;53.218;6.576;2022-12-29T06:40:20;9.77;;;2.47;;
58553;SDS011;48119;53.218;6.576;2022-12-29T06:42:46;11.65;;;3.28;;
58553;SDS011;48119;53.218;6.576;2022-12-29T06:45:12;7.18;;;2.05;;
58553;SDS011;48119;53.218;6.576;2022-12-29T06:47:38;7.63;;;1.83;;
58553;SDS011;48119;53.218;6.576;2022-12-29T06:50:04;13.52;;;2.42;;
58553;SDS011;48119;53.218;6.576;2022-12-29T06:52:30;13.40;;;2.60;;
58553;SDS011;48119;53.218;6.576;2022-12-29T06:54:56;8.75;;;1.83;;
58553;SDS011;48119;53.218;6.576;2022-12-29T06:57:22;9.57;;;2.80;;
58553;SDS011;48119;53.218;6.576;2022-12-29T06:59:48;13.27;;;3.45;;
58553;SDS011;48119;53.218;6.576;2022-12-29T07:02:14;13.25;;;2.85;;
58553;SDS011;48119;53.218;6.576;2022-12-29T07:04:41;9.15;;;3.10;;
58553;SDS011;48119;53.218;6.576;2022-12-29T07:07:07;9.93;;;2.53;;
58553;SDS011;48119;53.218;6.576;2022-12-29T07:09:33;10.68;;;2.50;;
58553;SDS011;48119;53.218;6.576;2022-12-29T07:11:59;11.95;;;2.50;;
58553;SDS011;48119;53.218;6.576;2022-12-29T07:14:24;9.73;;;2.25;;
58553;SDS011;48119;53.218;6.576;2022-12-29T07:16:50;8.48;;;2.35;;
58553;SDS011;48119;53.218;6.576;2022-12-29T07:19:16;8.32;;;2.35;;
58553;SDS011;48119;53.218;6.576;2022-12-29T07:21:41;10.13;;;2.63;;
58553;SDS011;48119;53.218;6.576;2022-12-29T07:24:07;8.43;;;2.47;;
58553;SDS011;48119;53.218;6.576;2022-12-29T07:26:33;9.15;;;2.72;;
58553;SDS011;48119;53.218;6.576;2022-12-29T07:29:01;11.65;;;3.05;;
58553;SDS011;48119;53.218;6.576;2022-12-29T07:31:28;10.85;;;2.60;;
58553;SDS011;48119;53.218;6.576;2022-12-29T07:33:54;11.10;;;2.47;;
58553;SDS011;48119;53.218;6.576;2022-12-29T07:36:19;12.57;;;3.40;;
58553;SDS011;48119;53.218;6.576;2022-12-29T07:38:45;7.68;;;2.60;;
58553;SDS011;48119;53.218;6.576;2022-12-29T07:41:11;10.90;;;2.70;;
58553;SDS011;48119;53.218;6.576;2022-12-29T07:43:37;11.70;;;3.22;;
58553;SDS011;48119;53.218;6.576;2022-12-29T07:46:03;11.82;;;3.20;;
58553;SDS011;48119;53.218;6.576;2022-12-29T07:48:29;9.43;;;2.72;;
58553;SDS011;48119;53.218;6.576;2022-12-29T07:50:54;12.35;;;2.22;;
58553;SDS011;48119;53.218;6.576;2022-12-29T07:53:20;11.30;;;2.47;;
58553;SDS011;48119;53.218;6.576;2022-12-29T07:55:46;8.65;;;2.20;;
58553;SDS011;48119;53.218;6.576;2022-12-29T07:58:11;10.43;;;2.47;;
58553;SDS011;48119;53.218;6.576;2022-12-29T08:00:37;13.65;;;2.80;;
58553;SDS011;48119;53.218;6.576;2022-12-29T08:03:04;9.40;;;2.40;;
58553;SDS011;48119;53.218;6.576;2022-12-29T08:05:30;16.02;;;3.85;;
58553;SDS011;48119;53.218;6.576;2022-12-29T08:07:57;11.07;;;3.10;;
58553;SDS011;48119;53.218;6.576;2022-12-29T08:10:23;10.63;;;2.88;;
58553;SDS011;48119;53.218;6.576;2022-12-29T08:12:49;11.05;;;2.85;;
58553;SDS011;48119;53.218;6.576;2022-12-29T08:15:14;9.65;;;2.58;;
58553;SDS011;48119;53.218;6.576;2022-12-29T08:17:40;12.88;;;2.72;;
58553;SDS011;48119;53.218;6.576;2022-12-29T08:20:06;13.05;;;2.65;;
58553;SDS011;48119;53.218;6.576;2022-12-29T08:22:33;11.18;;;2.42;;
58553;SDS011;48119;53.218;6.576;2022-12-29T08:24:58;10.95;;;3.60;;
58553;SDS011;48119;53.218;6.576;2022-12-29T08:27:25;10.88;;;2.58;;
58553;SDS011;48119;53.218;6.576;2022-12-29T08:29:51;10.35;;;2.58;;
58553;SDS011;48119;53.218;6.576;2022-12-29T08:32:16;12.13;;;2.90;;
58553;SDS011;48119;53.218;6.576;2022-12-29T08:34:42;11.32;;;2.97;;
58553;SDS011;48119;53.218;6.576;2022-12-29T08:37:08;11.80;;;3.03;;
58553;SDS011;48119;53.218;6.576;2022-12-29T08:39:34;11.85;;;4.38;;
58553;SDS011;48119;53.218;6.576;2022-12-29T08:41:59;13.63;;;3.42;;
58553;SDS011;48119;53.218;6.576;2022-12-29T08:44:25;12.07;;;3.30;;
58553;SDS011;48119;53.218;6.576;2022-12-29T08:46:51;20.92;;;4.00;;
58553;SDS011;48119;53.218;6.576;2022-12-29T08:49:17;13.10;;;2.97;;
58553;SDS011;48119;53.218;6.576;2022-12-29T08:51:43;16.65;;;4.35;;
58553;SDS011;48119;53.218;6.576;2022-12-29T08:54:08;17.75;;;4.05;;
58553;SDS011;48119;53.218;6.576;2022-12-29T08:56:34;13.05;;;3.40;;
58553;SDS011;48119;53.218;6.576;2022-12-29T08:59:00;12.50;;;3.17;;
58553;SDS011;48119;53.218;6.576;2022-12-29T09:01:26;9.50;;;4.28;;
58553;SDS011;48119;53.218;6.576;2022-12-29T09:03:53;18.27;;;3.25;;
58553;SDS011;48119;53.218;6.576;2022-12-29T09:06:19;13.05;;;3.63;;
58553;SDS011;48119;53.218;6.576;2022-12-29T09:08:45;17.58;;;3.72;;
58553;SDS011;48119;53.218;6.576;2022-12-29T09:13:36;10.63;;;2.83;;
58553;SDS011;48119;53.218;6.576;2022-12-29T09:16:02;18.10;;;4.05;;
58553;SDS011;48119;53.218;6.576;2022-12-29T09:18:28;18.17;;;4.50;;
58553;SDS011;48119;53.218;6.576;2022-12-29T09:20:58;12.63;;;3.38;;
58553;SDS011;48119;53.218;6.576;2022-12-29T09:23:25;14.50;;;4.07;;
58553;SDS011;48119;53.218;6.576;2022-12-29T09:25:52;21.98;;;4.03;;
58553;SDS011;48119;53.218;6.576;2022-12-29T09:28:18;11.88;;;2.92;;
58553;SDS011;48119;53.218;6.576;2022-12-29T09:30:44;19.38;;;4.32;;
58553;SDS011;48119;53.218;6.576;2022-12-29T09:33:10;11.85;;;2.95;;
58553;SDS011;48119;53.218;6.576;2022-12-29T09:35:36;12.02;;;3.47;;
58553;SDS011;48119;53.218;6.576;2022-12-29T09:38:01;14.00;;;3.08;;
58553;SDS011;48119;53.218;6.576;2022-12-29T09:40:31;16.42;;;4.28;;
58553;SDS011;48119;53.218;6.576;2022-12-29T09:43:05;15.60;;;4.10;;
58553;SDS011;48119;53.218;6.576;2022-12-29T09:48:17;12.48;;;3.08;;
58553;SDS011;48119;53.218;6.576;2022-12-29T09:50:49;13.02;;;3.08;;
58553;SDS011;48119;53.218;6.576;2022-12-29T09:55:48;11.05;;;3.08;;
58553;SDS011;48119;53.218;6.576;2022-12-29T09:58:30;14.00;;;3.38;;
58553;SDS011;48119;53.218;6.576;2022-12-29T10:01:12;11.80;;;3.33;;
58553;SDS011;48119;53.218;6.576;2022-12-29T10:03:47;10.15;;;2.47;;
58553;SDS011;48119;53.218;6.576;2022-12-29T10:06:17;14.80;;;2.90;;
58553;SDS011;48119;53.218;6.576;2022-12-29T10:08:48;13.20;;;3.72;;
58553;SDS011;48119;53.218;6.576;2022-12-29T10:19:54;7.90;;;2.50;;
58553;SDS011;48119;53.218;6.576;2022-12-29T10:25:29;18.70;;;3.30;;
58553;SDS011;48119;53.218;6.576;2022-12-29T10:28:01;8.55;;;2.15;;
58553;SDS011;48119;53.218;6.576;2022-12-29T10:30:32;9.25;;;2.60;;
58553;SDS011;48119;53.218;6.576;2022-12-29T10:33:01;4.78;;;1.80;;
58553;SDS011;48119;53.218;6.576;2022-12-29T10:35:31;11.07;;;2.80;;
58553;SDS011;48119;53.218;6.576;2022-12-29T10:40:59;8.02;;;2.63;;
58553;SDS011;48119;53.218;6.576;2022-12-29T10:43:33;8.20;;;2.42;;
58553;SDS011;48119;53.218;6.576;2022-12-29T10:46:09;10.82;;;2.45;;
58553;SDS011;48119;53.218;6.576;2022-12-29T10:48:39;10.70;;;2.38;;
58553;SDS011;48119;53.218;6.576;2022-12-29T10:51:05;10.93;;;2.70;;
58553;SDS011;48119;53.218;6.576;2022-12-29T10:53:38;14.05;;;3.28;;
58553;SDS011;48119;53.218;6.576;2022-12-29T10:56:15;11.40;;;2.60;;
58553;SDS011;48119;53.218;6.576;2022-12-29T10:58:55;12.95;;;3.53;;
58553;SDS011;48119;53.218;6.576;2022-12-29T11:01:26;11.23;;;2.70;;
58553;SDS011;48119;53.218;6.576;2022-12-29T11:04:12;11.70;;;3.05;;
58553;SDS011;48119;53.218;6.576;2022-12-29T11:06:54;14.10;;;3.20;;
58553;SDS011;48119;53.218;6.576;2022-12-29T11:09:26;14.90;;;3.90;;
58553;SDS011;48119;53.218;6.576;2022-12-29T11:11:55;14.05;;;3.50;;
58553;SDS011;48119;53.218;6.576;2022-12-29T11:14:25;20.52;;;4.15;;
58553;SDS011;48119;53.218;6.576;2022-12-29T11:17:01;11.50;;;3.20;;
58553;SDS011;48119;53.218;6.576;2022-12-29T11:19:29;18.40;;;4.22;;
58553;SDS011;48119;53.218;6.576;2022-12-29T11:22:39;19.77;;;5.10;;
58553;SDS011;48119;53.218;6.576;2022-12-29T11:24:48;14.55;;;3.58;;
58553;SDS011;48119;53.218;6.576;2022-12-29T11:29:43;14.88;;;3.90;;
58553;SDS011;48119;53.218;6.576;2022-12-29T11:32:16;15.57;;;4.15;;
58553;SDS011;48119;53.218;6.576;2022-12-29T11:34:50;12.40;;;4.05;;
58553;SDS011;48119;53.218;6.576;2022-12-29T11:37:17;13.68;;;3.60;;
58553;SDS011;48119;53.218;6.576;2022-12-29T11:39:51;16.02;;;3.97;;
58553;SDS011;48119;53.218;6.576;2022-12-29T11:45:18;15.30;;;4.53;;
58553;SDS011;48119;53.218;6.576;2022-12-29T11:48:17;13.25;;;3.55;;
58553;SDS011;48119;53.218;6.576;2022-12-29T11:50:54;13.13;;;3.83;;
58553;SDS011;48119;53.218;6.576;2022-12-29T11:53:25;14.88;;;4.55;;
58553;SDS011;48119;53.218;6.576;2022-12-29T11:58:32;17.90;;;4.32;;
58553;SDS011;48119;53.218;6.576;2022-12-29T12:06:26;15.43;;;3.60;;
58553;SDS011;48119;53.218;6.576;2022-12-29T12:08:55;20.80;;;4.85;;
58553;SDS011;48119;53.218;6.576;2022-12-29T12:11:26;15.52;;;4.38;;
58553;SDS011;48119;53.218;6.576;2022-12-29T12:14:11;12.07;;;3.47;;
58553;SDS011;48119;53.218;6.576;2022-12-29T12:19:27;14.93;;;4.75;;
58553;SDS011;48119;53.218;6.576;2022-12-29T12:22:27;11.73;;;3.70;;
58553;SDS011;48119;53.218;6.576;2022-12-29T12:24:56;15.82;;;4.60;;
58553;SDS011;48119;53.218;6.576;2022-12-29T12:27:53;18.25;;;4.70;;
58553;SDS011;48119;53.218;6.576;2022-12-29T12:30:30;21.05;;;5.00;;
58553;SDS011;48119;53.218;6.576;2022-12-29T12:39:05;15.55;;;4.15;;
58553;SDS011;48119;53.218;6.576;2022-12-29T12:41:57;8.20;;;2.78;;
58553;SDS011;48119;53.218;6.576;2022-12-29T12:44:48;15.02;;;4.75;;
58553;SDS011;48119;53.218;6.576;2022-12-29T12:59:04;14.48;;;4.43;;
58553;SDS011;48119;53.218;6.576;2022-12-29T13:09:51;11.25;;;3.00;;
58553;SDS011;48119;53.218;6.576;2022-12-29T13:12:33;12.10;;;3.20;;
58553;SDS011;48119;53.218;6.576;2022-12-29T13:17:46;7.07;;;3.08;;
58553;SDS011;48119;53.218;6.576;2022-12-29T13:26:14;10.10;;;2.75;;
58553;SDS011;48119;53.218;6.576;2022-12-29T13:36:42;10.13;;;2.10;;
58553;SDS011;48119;53.218;6.576;2022-12-29T13:39:13;14.50;;;3.03;;
58553;SDS011;48119;53.218;6.576;2022-12-29T13:41:43;8.48;;;2.30;;
58553;SDS011;48119;53.218;6.576;2022-12-29T13:44:33;12.27;;;2.22;;
58553;SDS011;48119;53.218;6.576;2022-12-29T13:49:43;12.77;;;3.08;;
58553;SDS011;48119;53.218;6.576;2022-12-29T13:52:15;11.63;;;2.38;;
58553;SDS011;48119;53.218;6.576;2022-12-29T13:57:50;8.50;;;2.38;;
58553;SDS011;48119;53.218;6.576;2022-12-29T14:00:27;9.40;;;2.42;;
58553;SDS011;48119;53.218;6.576;2022-12-29T14:05:30;8.13;;;2.70;;
58553;SDS011;48119;53.218;6.576;2022-12-29T14:07:58;9.80;;;2.30;;
58553;SDS011;48119;53.218;6.576;2022-12-29T14:13:02;9.15;;;2.35;;
58553;SDS011;48119;53.218;6.576;2022-12-29T14:15:39;11.32;;;2.53;;
58553;SDS011;48119;53.218;6.576;2022-12-29T14:18:19;12.40;;;3.03;;
58553;SDS011;48119;53.218;6.576;2022-12-29T14:23:28;7.00;;;2.42;;
58553;SDS011;48119;53.218;6.576;2022-12-29T14:26:08;12.90;;;2.67;;
58553;SDS011;48119;53.218;6.576;2022-12-29T14:28:54;13.35;;;3.17;;
58553;SDS011;48119;53.218;6.576;2022-12-29T14:34:14;13.13;;;2.72;;
58553;SDS011;48119;53.218;6.576;2022-12-29T14:36:38;17.42;;;3.00;;
58553;SDS011;48119;53.218;6.576;2022-12-29T14:39:52;8.30;;;2.90;;
58553;SDS011;48119;53.218;6.576;2022-12-29T14:49:56;14.63;;;3.35;;
58553;SDS011;48119;53.218;6.576;2022-12-29T14:52:52;11.10;;;3.30;;
58553;SDS011;48119;53.218;6.576;2022-12-29T15:00:45;8.23;;;2.80;;
58553;SDS011;48119;53.218;6.576;2022-12-29T15:03:32;13.18;;;3.78;;
58553;SDS011;48119;53.218;6.576;2022-12-29T15:06:04;15.20;;;3.22;;
58553;SDS011;48119;53.218;6.576;2022-12-29T15:08:38;9.55;;;2.60;;
58553;SDS011;48119;53.218;6.576;2022-12-29T15:11:41;9.60;;;3.50;;
58553;SDS011;48119;53.218;6.576;2022-12-29T15:17:11;9.27;;;2.53;;
58553;SDS011;48119;53.218;6.576;2022-12-29T15:19:52;13.18;;;3.40;;
58553;SDS011;48119;53.218;6.576;2022-12-29T15:22:20;15.50;;;3.33;;
58553;SDS011;48119;53.218;6.576;2022-12-29T15:24:46;13.23;;;3.25;;
58553;SDS011;48119;53.218;6.576;2022-12-29T15:27:15;12.68;;;4.18;;
58553;SDS011;48119;53.218;6.576;2022-12-29T15:29:45;7.57;;;3.08;;
58553;SDS011;48119;53.218;6.576;2022-12-29T15:32:22;7.68;;;3.22;;
58553;SDS011;48119;53.218;6.576;2022-12-29T15:34:50;15.98;;;4.07;;
58553;SDS011;48119;53.218;6.576;2022-12-29T15:37:26;10.38;;;2.58;;
58553;SDS011;48119;53.218;6.576;2022-12-29T15:39:53;11.23;;;3.58;;
58553;SDS011;48119;53.218;6.576;2022-12-29T15:42:29;10.57;;;2.53;;
58553;SDS011;48119;53.218;6.576;2022-12-29T15:45:15;10.93;;;2.97;;
58553;SDS011;48119;53.218;6.576;2022-12-29T15:47:41;12.32;;;3.60;;
58553;SDS011;48119;53.218;6.576;2022-12-29T15:50:42;14.52;;;3.17;;
58553;SDS011;48119;53.218;6.576;2022-12-29T15:53:09;12.50;;;2.75;;
58553;SDS011;48119;53.218;6.576;2022-12-29T15:55:37;12.88;;;4.55;;
58553;SDS011;48119;53.218;6.576;2022-12-29T15:58:05;10.52;;;4.15;;
58553;SDS011;48119;53.218;6.576;2022-12-29T16:00:51;10.90;;;3.63;;
58553;SDS011;48119;53.218;6.576;2022-12-29T16:03:18;11.55;;;3.22;;
58553;SDS011;48119;53.218;6.576;2022-12-29T16:06:07;13.77;;;3.00;;
58553;SDS011;48119;53.218;6.576;2022-12-29T16:09:00;13.32;;;3.13;;
58553;SDS011;48119;53.218;6.576;2022-12-29T16:11:32;11.80;;;3.50;;
58553;SDS011;48119;53.218;6.576;2022-12-29T16:14:14;13.82;;;3.33;;
58553;SDS011;48119;53.218;6.576;2022-12-29T16:16:43;14.07;;;3.67;;
58553;SDS011;48119;53.218;6.576;2022-12-29T16:21:58;11.45;;;2.83;;
58553;SDS011;48119;53.218;6.576;2022-12-29T16:24:28;11.07;;;2.95;;
58553;SDS011;48119;53.218;6.576;2022-12-29T16:26:58;6.93;;;2.60;;
58553;SDS011;48119;53.218;6.576;2022-12-29T16:32:25;9.77;;;2.93;;
58553;SDS011;48119;53.218;6.576;2022-12-29T16:35:07;13.95;;;3.08;;
58553;SDS011;48119;53.218;6.576;2022-12-29T16:37:38;14.60;;;2.78;;
58553;SDS011;48119;53.218;6.576;2022-12-29T16:40:23;10.32;;;2.10;;
58553;SDS011;48119;53.218;6.576;2022-12-29T16:42:54;7.90;;;2.65;;
58553;SDS011;48119;53.218;6.576;2022-12-29T16:50:35;4.38;;;2.00;;
58553;SDS011;48119;53.218;6.576;2022-12-29T16:53:02;5.32;;;2.35;;
58553;SDS011;48119;53.218;6.576;2022-12-29T16:55:30;8.32;;;2.30;;
58553;SDS011;48119;53.218;6.576;2022-12-29T16:57:56;5.32;;;1.77;;
58553;SDS011;48119;53.218;6.576;2022-12-29T17:00:23;6.55;;;1.77;;
58553;SDS011;48119;53.218;6.576;2022-12-29T17:02:52;4.35;;;1.80;;
58553;SDS011;48119;53.218;6.576;2022-12-29T17:05:21;5.43;;;2.90;;
58553;SDS011;48119;53.218;6.576;2022-12-29T17:07:47;9.30;;;3.03;;
58553;SDS011;48119;53.218;6.576;2022-12-29T17:10:13;4.38;;;1.88;;
58553;SDS011;48119;53.218;6.576;2022-12-29T17:12:40;9.02;;;3.42;;
58553;SDS011;48119;53.218;6.576;2022-12-29T17:15:30;13.15;;;3.67;;
58553;SDS011;48119;53.218;6.576;2022-12-29T17:17:57;7.18;;;3.00;;
58553;SDS011;48119;53.218;6.576;2022-12-29T17:20:28;10.57;;;3.35;;
58553;SDS011;48119;53.218;6.576;2022-12-29T17:22:55;5.30;;;2.42;;
58553;SDS011;48119;53.218;6.576;2022-12-29T17:30:21;15.27;;;3.17;;
58553;SDS011;48119;53.218;6.576;2022-12-29T17:32:50;10.98;;;3.28;;
58553;SDS011;48119;53.218;6.576;2022-12-29T17:35:18;12.55;;;4.50;;
58553;SDS011;48119;53.218;6.576;2022-12-29T17:37:45;11.55;;;3.00;;
58553;SDS011;48119;53.218;6.576;2022-12-29T17:40:22;10.48;;;3.67;;
58553;SDS011;48119;53.218;6.576;2022-12-29T17:42:51;14.50;;;4.15;;
58553;SDS011;48119;53.218;6.576;2022-12-29T17:47:45;10.55;;;3.17;;
58553;SDS011;48119;53.218;6.576;2022-12-29T17:50:12;15.35;;;3.17;;
58553;SDS011;48119;53.218;6.576;2022-12-29T17:52:40;15.20;;;3.92;;
58553;SDS011;48119;53.218;6.576;2022-12-29T17:55:12;10.95;;;3.38;;